createdAt,value
2023-01-13T00:00:37.599Z,51.6
2023-01-13T00:01:38.537Z,51.4
2023-01-13T00:02:39.700Z,51.5
2023-01-13T00:03:40.742Z,51.5
2023-01-13T00:04:42.044Z,51.5
2023-01-13T00:05:43.784Z,51.8
2023-01-13T00:06:44.580Z,52
2023-01-13T00:07:45.607Z,51.8
2023-01-13T00:08:46.557Z,51.6
2023-01-13T00:09:48.218Z,51.5
2023-01-13T00:10:49.607Z,51.3
2023-01-13T00:11:50.538Z,51.3
2023-01-13T00:12:51.529Z,51.5
2023-01-13T00:13:52.612Z,51.5
2023-01-13T00:14:53.537Z,51.4
2023-01-13T00:15:54.559Z,51.3
2023-01-13T00:16:55.676Z,51.2
2023-01-13T00:17:56.954Z,51.3
2023-01-13T00:18:58.776Z,51.3
2023-01-13T00:19:59.817Z,51.2
2023-01-13T00:21:01.821Z,51.1
2023-01-13T00:22:03.739Z,51
2023-01-13T00:23:04.555Z,51.1
2023-01-13T00:24:05.558Z,50.6
2023-01-13T00:25:06.637Z,50.6
2023-01-13T00:26:07.556Z,50.5
2023-01-13T00:27:08.557Z,50.4
2023-01-13T00:28:09.583Z,50.3
2023-01-13T00:29:10.917Z,50.4
2023-01-13T00:30:13.457Z,50.5
2023-01-13T00:31:14.915Z,50.6
2023-01-13T00:32:16.518Z,50.7
2023-01-13T00:33:17.637Z,50.9
2023-01-13T00:34:18.557Z,51
2023-01-13T00:35:19.576Z,51
2023-01-13T00:36:20.535Z,50.8
2023-01-13T00:37:21.630Z,50.7
2023-01-13T00:38:22.978Z,50.6
2023-01-13T00:39:24.692Z,50.6
2023-01-13T00:40:25.597Z,50.4
2023-01-13T00:41:26.589Z,50.5
2023-01-13T00:42:27.498Z,50.4
2023-01-13T00:43:28.591Z,50.3
2023-01-13T00:44:30.198Z,50.4
2023-01-13T00:45:32.445Z,50.5
2023-01-13T00:46:33.817Z,50.5
2023-01-13T00:47:34.597Z,50.6
2023-01-13T00:48:35.595Z,50.5
2023-01-13T00:49:37.417Z,50.6
2023-01-13T00:50:38.681Z,50.2
2023-01-13T00:51:39.535Z,50.6
2023-01-13T00:52:42.241Z,50.9
2023-01-13T00:53:41.737Z,50.9
2023-01-13T00:54:42.827Z,51.1
2023-01-13T00:55:43.756Z,51.3
2023-01-13T00:56:44.717Z,51.1
2023-01-13T00:57:45.827Z,50.9
2023-01-13T00:58:46.781Z,51.1
2023-01-13T00:59:49.585Z,51.2
2023-01-13T01:00:49.786Z,51.1
2023-01-13T01:01:50.786Z,50.9
2023-01-13T01:02:51.637Z,50.8
2023-01-13T01:03:52.579Z,51.5
2023-01-13T01:04:53.588Z,51.9
2023-01-13T01:05:54.577Z,52.1
2023-01-13T01:06:55.652Z,52.3
2023-01-13T01:07:56.737Z,52.3
2023-01-13T01:08:57.807Z,52.5
2023-01-13T01:09:58.837Z,52.5
2023-01-13T01:11:00.879Z,52.7
2023-01-13T01:12:02.779Z,53
2023-01-13T01:13:03.645Z,53.1
2023-01-13T01:14:04.657Z,53
2023-01-13T01:15:06.276Z,52.9
2023-01-13T01:16:07.915Z,53.1
2023-01-13T01:17:09.570Z,53.2
2023-01-13T01:18:10.556Z,53.2
2023-01-13T01:19:12.278Z,53.1
2023-01-13T01:20:13.730Z,53.2
2023-01-13T01:21:14.797Z,53.1
2023-01-13T01:22:15.781Z,52.9
2023-01-13T01:23:16.781Z,52.9
2023-01-13T01:24:17.788Z,53.1
2023-01-13T01:25:18.784Z,53.3
2023-01-13T01:26:19.786Z,53.3
2023-01-13T01:27:20.761Z,53.1
2023-01-13T01:28:21.618Z,53.1
2023-01-13T01:29:22.655Z,53
2023-01-13T01:30:23.787Z,52.7
2023-01-13T01:31:24.754Z,52.8
2023-01-13T01:32:25.557Z,52.9
2023-01-13T01:33:26.938Z,53
2023-01-13T01:34:29.000Z,52.8
2023-01-13T01:35:30.819Z,52.7
2023-01-13T01:36:31.808Z,52.9
2023-01-13T01:37:32.779Z,53
2023-01-13T01:38:33.803Z,52.7
2023-01-13T01:39:34.588Z,52.8
2023-01-13T01:40:35.636Z,52.5
2023-01-13T01:41:36.605Z,53
2023-01-13T01:42:37.572Z,53.1
2023-01-13T01:43:38.611Z,53
2023-01-13T01:44:39.544Z,52.9
2023-01-13T01:45:40.678Z,52.8
2023-01-13T01:46:41.914Z,52.9
2023-01-13T01:47:42.869Z,52.5
2023-01-13T01:48:44.713Z,52.5
2023-01-13T01:49:45.857Z,52.3
2023-01-13T01:50:46.779Z,52.9
2023-01-13T01:51:48.335Z,52.8
2023-01-13T01:52:49.683Z,52.7
2023-01-13T01:53:50.618Z,52.8
2023-01-13T01:54:51.582Z,52.8
2023-01-13T01:55:52.598Z,52.8
2023-01-13T01:56:53.664Z,52.9
2023-01-13T01:57:54.604Z,52.7
2023-01-13T01:58:55.598Z,52.7
2023-01-13T01:59:56.901Z,52.6
2023-01-13T02:00:57.948Z,52.7
2023-01-13T02:01:59.961Z,52.7
2023-01-13T02:03:01.879Z,52.5
2023-01-13T02:07:38.998Z,51.4
2023-01-13T02:08:41.086Z,51.6
2023-01-13T02:09:42.813Z,51.7
2023-01-13T02:10:43.906Z,51.8
2023-01-13T02:11:45.866Z,51.7
2023-01-13T02:12:46.813Z,51.7
2023-01-13T02:13:48.354Z,51.7
2023-01-13T02:14:49.600Z,51.7
2023-01-13T02:15:50.667Z,51.7
2023-01-13T02:16:51.629Z,51.8
2023-01-13T02:17:52.601Z,52
2023-01-13T02:18:53.674Z,52.1
2023-01-13T02:19:54.634Z,52.1
2023-01-13T02:20:55.627Z,51.9
2023-01-13T02:21:56.856Z,51.9
2023-01-13T02:22:57.803Z,51.7
2023-01-13T02:23:58.919Z,51.6
2023-01-13T02:25:00.900Z,51.4
2023-01-13T02:26:02.702Z,51.2
2023-01-13T02:27:03.693Z,51.1
2023-01-13T02:28:04.733Z,51.2
2023-01-13T02:29:05.605Z,51.4
2023-01-13T02:30:06.692Z,51.5
2023-01-13T02:31:07.617Z,51.5
2023-01-13T02:32:08.585Z,51.4
2023-01-13T02:33:09.674Z,51.2
2023-01-13T02:34:10.667Z,51.2
2023-01-13T02:35:11.826Z,50.9
2023-01-13T02:36:12.826Z,50.7
2023-01-13T02:37:13.805Z,50.8
2023-01-13T02:38:14.811Z,50.9
2023-01-13T02:39:15.786Z,51
2023-01-13T02:40:16.845Z,50.9
2023-01-13T02:41:17.887Z,50.9
2023-01-13T02:42:19.885Z,50.7
2023-01-13T02:43:21.657Z,50.6
2023-01-13T02:44:22.628Z,50.3
2023-01-13T02:45:23.800Z,50.1
2023-01-13T02:46:24.809Z,50.2
2023-01-13T02:47:25.633Z,50.4
2023-01-13T02:48:26.807Z,50.7
2023-01-13T02:49:27.825Z,50.6
2023-01-13T02:50:28.776Z,50.6
2023-01-13T02:51:29.850Z,50.7
2023-01-13T02:52:30.894Z,50.5
2023-01-13T02:53:32.896Z,50.4
2023-01-13T02:54:34.926Z,50.3
2023-01-13T02:55:36.857Z,50.3
2023-01-13T02:56:37.852Z,50.6
2023-01-13T02:57:38.645Z,50.5
2023-01-13T02:58:39.695Z,50.6
2023-01-13T02:59:40.563Z,50.4
2023-01-13T03:00:41.699Z,50.5
2023-01-13T03:01:42.824Z,50.4
2023-01-13T03:02:43.738Z,49.8
2023-01-13T03:03:44.621Z,50.2
2023-01-13T03:04:45.539Z,50.4
2023-01-13T03:05:46.490Z,50.5
2023-01-13T03:06:48.268Z,50.5
2023-01-13T03:07:49.727Z,50.2
2023-01-13T03:08:50.538Z,50.1
2023-01-13T03:09:51.554Z,50.1
2023-01-13T03:10:52.527Z,50.1
2023-01-13T03:11:53.597Z,50.2
2023-01-13T03:12:54.551Z,50.3
2023-01-13T03:13:55.607Z,50.8
2023-01-13T03:14:56.587Z,51
2023-01-13T03:15:57.540Z,50.7
2023-01-13T03:16:58.476Z,50.5
2023-01-13T03:17:59.544Z,50.9
2023-01-13T03:19:00.491Z,51.2
2023-01-13T03:20:01.567Z,51.5
2023-01-13T03:21:02.561Z,51.6
2023-01-13T03:22:03.620Z,51.7
2023-01-13T03:23:04.522Z,52
2023-01-13T03:24:05.531Z,52.1
2023-01-13T03:25:06.560Z,51.9
2023-01-13T03:26:07.502Z,51.8
2023-01-13T03:27:08.599Z,51.8
2023-01-13T03:28:09.585Z,51.5
2023-01-13T03:29:10.549Z,51.3
2023-01-13T03:30:11.560Z,51.1
2023-01-13T03:31:12.739Z,51.2
2023-01-13T03:32:13.864Z,51
2023-01-13T03:33:14.758Z,50.9
2023-01-13T03:34:15.737Z,50.7
2023-01-13T03:35:16.679Z,50.9
2023-01-13T03:36:17.679Z,50.8
2023-01-13T03:37:18.718Z,50.4
2023-01-13T03:38:19.809Z,50.5
2023-01-13T03:39:20.767Z,50.6
2023-01-13T03:40:21.668Z,50.4
2023-01-13T03:41:22.746Z,50.4
2023-01-13T03:42:23.620Z,50.4
2023-01-13T03:43:24.559Z,50.3
2023-01-13T03:44:25.575Z,50.4
2023-01-13T03:45:26.708Z,50.4
2023-01-13T03:46:27.661Z,50.4
2023-01-13T03:47:28.697Z,50
2023-01-13T03:48:29.718Z,50
2023-01-13T03:49:30.659Z,49.7
2023-01-13T03:50:31.506Z,48.7
2023-01-13T03:51:33.158Z,49.3
2023-01-13T03:52:34.711Z,49.3
2023-01-13T03:53:35.800Z,48.6
2023-01-13T03:54:36.779Z,48.4
2023-01-13T03:55:37.559Z,48.7
2023-01-13T03:56:38.649Z,48.8
2023-01-13T03:57:39.594Z,49.3
2023-01-13T03:58:40.536Z,49
2023-01-13T03:59:41.620Z,48.9
2023-01-13T04:00:42.747Z,48.8
2023-01-13T04:01:43.847Z,48.7
2023-01-13T04:02:44.684Z,48.8
2023-01-13T04:03:45.861Z,48.8
2023-01-13T04:04:46.679Z,48.7
2023-01-13T04:05:48.387Z,48.4
2023-01-13T04:06:49.748Z,48.4
2023-01-13T04:07:50.640Z,48.5
2023-01-13T04:08:51.528Z,48.5
2023-01-13T04:09:52.609Z,48.5
2023-01-13T04:10:53.614Z,48.5
2023-01-13T04:11:54.831Z,48.5
2023-01-13T04:12:55.530Z,48.4
2023-01-13T04:13:56.564Z,48.5
2023-01-13T04:14:57.684Z,48.7
2023-01-13T04:15:58.783Z,48.8
2023-01-13T04:16:59.743Z,48.7
2023-01-13T04:18:00.688Z,48.7
2023-01-13T04:19:01.698Z,48.8
2023-01-13T04:20:02.740Z,49
2023-01-13T04:21:03.749Z,49.2
2023-01-13T04:22:04.726Z,49.2
2023-01-13T04:23:05.767Z,49.2
2023-01-13T04:24:06.728Z,49.3
2023-01-13T04:25:07.722Z,49.3
2023-01-13T04:26:08.687Z,49.6
2023-01-13T04:27:09.555Z,50
2023-01-13T04:28:10.621Z,50.1
2023-01-13T04:29:12.284Z,50.1
2023-01-13T04:30:12.750Z,50
2023-01-13T04:31:13.802Z,49.7
2023-01-13T04:32:14.701Z,49.6
2023-01-13T04:33:15.734Z,49.8
2023-01-13T04:34:16.666Z,49.9
2023-01-13T04:35:17.661Z,49.9
2023-01-13T04:36:18.720Z,49.5
2023-01-13T04:37:19.762Z,49.4
2023-01-13T04:38:20.742Z,49.8
2023-01-13T04:39:21.685Z,49.9
2023-01-13T04:40:22.654Z,49.8
2023-01-13T04:41:23.607Z,49.6
2023-01-13T04:42:24.658Z,49.8
2023-01-13T04:43:25.600Z,49.3
2023-01-13T04:44:26.641Z,49.3
2023-01-13T04:45:27.752Z,49.5
2023-01-13T04:46:28.728Z,49.1
2023-01-13T04:47:29.762Z,49.2
2023-01-13T04:48:30.710Z,49.1
2023-01-13T04:49:31.718Z,49
2023-01-13T04:50:32.677Z,49
2023-01-13T04:51:33.820Z,49.3
2023-01-13T04:52:34.810Z,49.4
2023-01-13T04:53:35.564Z,49.7
2023-01-13T04:54:36.615Z,49.6
2023-01-13T04:55:37.572Z,49.5
2023-01-13T04:56:38.633Z,49.4
2023-01-13T04:57:39.474Z,49
2023-01-13T04:58:40.533Z,48.8
2023-01-13T04:59:41.759Z,48.8
2023-01-13T05:00:42.683Z,48.9
2023-01-13T05:01:43.757Z,48.1
2023-01-13T05:02:44.669Z,48.6
2023-01-13T05:03:45.629Z,49.2
2023-01-13T05:04:46.541Z,49.2
2023-01-13T05:05:47.559Z,49.4
2023-01-13T05:06:48.602Z,49.5
2023-01-13T05:07:49.579Z,49.4
2023-01-13T05:08:50.609Z,49.1
2023-01-13T05:09:51.588Z,49
2023-01-13T05:10:52.719Z,49
2023-01-13T05:11:53.648Z,49
2023-01-13T05:12:54.609Z,48.9
2023-01-13T05:13:55.648Z,49
2023-01-13T05:14:56.721Z,49.2
2023-01-13T05:15:57.749Z,49.2
2023-01-13T05:16:58.686Z,49.3
2023-01-13T05:17:59.861Z,49.4
2023-01-13T05:19:00.591Z,49.4
2023-01-13T05:20:01.566Z,49.3
2023-01-13T05:21:02.559Z,49.3
2023-01-13T05:22:03.599Z,49.3
2023-01-13T05:23:04.629Z,49.5
2023-01-13T05:24:05.585Z,49.6
2023-01-13T05:25:06.598Z,49.6
2023-01-13T05:26:07.634Z,49.7
2023-01-13T05:27:08.554Z,49.8
2023-01-13T05:28:09.605Z,49.9
2023-01-13T05:29:10.545Z,49.9
2023-01-13T05:30:11.646Z,49.7
2023-01-13T05:31:12.813Z,49.4
2023-01-13T05:32:13.746Z,48.9
2023-01-13T05:33:14.719Z,49.3
2023-01-13T05:34:15.676Z,49.3
2023-01-13T05:35:16.615Z,49.4
2023-01-13T05:36:17.727Z,49.3
2023-01-13T05:37:18.830Z,49.3
2023-01-13T05:38:19.841Z,49.1
2023-01-13T05:39:20.741Z,49
2023-01-13T05:40:21.640Z,48.4
2023-01-13T05:41:22.628Z,49
2023-01-13T05:42:23.738Z,48.9
2023-01-13T05:43:24.921Z,48.4
2023-01-13T05:44:25.601Z,48.7
2023-01-13T05:45:26.674Z,48.7
2023-01-13T05:46:27.833Z,48.9
2023-01-13T05:47:28.759Z,49.2
2023-01-13T05:48:29.641Z,49.1
2023-01-13T05:49:30.548Z,49.3
2023-01-13T05:50:31.659Z,49.1
2023-01-13T05:51:32.759Z,48.9
2023-01-13T05:52:33.662Z,49
2023-01-13T05:53:34.585Z,48.9
2023-01-13T05:54:35.561Z,49.1
2023-01-13T05:55:36.613Z,49
2023-01-13T05:56:37.559Z,49
2023-01-13T05:57:38.668Z,48.8
2023-01-13T05:58:39.600Z,49
2023-01-13T05:59:40.543Z,49
2023-01-13T06:00:42.052Z,48.5
2023-01-13T06:01:42.651Z,48.5
2023-01-13T06:02:43.773Z,48.5
2023-01-13T06:03:44.698Z,48.8
2023-01-13T06:04:45.788Z,48.5
2023-01-13T06:05:47.046Z,48.9
2023-01-13T06:06:48.799Z,48.8
2023-01-13T06:07:49.721Z,48.8
2023-01-13T06:08:50.755Z,49
2023-01-13T06:09:51.781Z,49.2
2023-01-13T06:10:52.580Z,49
2023-01-13T06:11:53.579Z,49.1
2023-01-13T06:12:54.501Z,49
2023-01-13T06:13:55.614Z,49
2023-01-13T06:14:56.659Z,49
2023-01-13T06:15:57.903Z,48.9
2023-01-13T06:16:58.730Z,48.8
2023-01-13T06:17:59.800Z,48.9
2023-01-13T06:19:00.718Z,48.8
2023-01-13T06:20:01.794Z,48.9
2023-01-13T06:21:02.760Z,48.8
2023-01-13T06:22:03.932Z,48.8
2023-01-13T06:23:04.664Z,48.6
2023-01-13T06:24:05.707Z,48.4
2023-01-13T06:25:06.683Z,48.2
2023-01-13T06:26:07.800Z,47.9
2023-01-13T06:27:08.765Z,48
2023-01-13T06:28:09.770Z,48.1
2023-01-13T06:29:10.588Z,48.1
2023-01-13T06:30:11.621Z,47.9
2023-01-13T06:31:12.852Z,47.8
2023-01-13T06:32:13.880Z,47.9
2023-01-13T06:33:14.612Z,48.1
2023-01-13T06:34:15.651Z,48.2
2023-01-13T06:35:16.569Z,48.3
2023-01-13T06:36:17.596Z,48.4
2023-01-13T06:37:18.748Z,48.5
2023-01-13T06:38:19.832Z,48.8
2023-01-13T06:39:20.802Z,48.2
2023-01-13T06:40:21.620Z,48.8
2023-01-13T06:41:22.752Z,48.9
2023-01-13T06:42:24.054Z,49.1
2023-01-13T06:43:24.707Z,49
2023-01-13T06:44:25.650Z,48.9
2023-01-13T06:45:26.891Z,48.5
2023-01-13T06:46:27.796Z,48.5
2023-01-13T06:47:28.826Z,48.4
2023-01-13T06:48:29.586Z,48.2
2023-01-13T06:49:30.581Z,48.4
2023-01-13T06:50:31.673Z,48.3
2023-01-13T06:51:32.661Z,48.5
2023-01-13T06:52:33.781Z,48.7
2023-01-13T06:53:34.713Z,49
2023-01-13T06:54:35.897Z,48.9
2023-01-13T06:55:36.608Z,49.1
2023-01-13T06:56:37.652Z,49
2023-01-13T06:57:38.648Z,49.1
2023-01-13T06:58:39.615Z,49.1
2023-01-13T06:59:40.689Z,49.3
2023-01-13T07:00:41.751Z,49.4
2023-01-13T07:01:43.007Z,49.6
2023-01-13T07:02:44.222Z,49.7
2023-01-13T07:03:45.704Z,49.9
2023-01-13T07:04:47.132Z,49.7
2023-01-13T07:05:48.784Z,49.8
2023-01-13T07:06:49.814Z,50
2023-01-13T07:07:50.786Z,50.1
2023-01-13T07:08:51.849Z,50.2
2023-01-13T07:09:52.900Z,50.3
2023-01-13T07:10:53.923Z,50.2
2023-01-13T07:11:54.983Z,50.2
2023-01-13T07:12:55.680Z,50.2
2023-01-13T07:13:56.621Z,50.1
2023-01-13T07:14:57.680Z,50.2
2023-01-13T07:15:58.887Z,50.2
2023-01-13T07:16:59.783Z,50.3
2023-01-13T07:18:00.826Z,50.4
2023-01-13T07:19:01.705Z,50.2
2023-01-13T07:20:02.690Z,50.2
2023-01-13T07:21:03.642Z,50.3
2023-01-13T07:22:04.638Z,50
2023-01-13T07:23:05.659Z,49.8
2023-01-13T07:24:06.703Z,49.9
2023-01-13T07:25:07.619Z,50
2023-01-13T07:26:08.709Z,49.9
2023-01-13T07:27:09.771Z,50.1
2023-01-13T07:28:10.679Z,50.2
2023-01-13T07:29:11.747Z,50.2
2023-01-13T07:30:12.648Z,50.2
2023-01-13T07:31:13.660Z,50.3
2023-01-13T07:32:14.622Z,50.2
2023-01-13T07:33:15.640Z,50.2
2023-01-13T07:34:16.642Z,50.3
2023-01-13T07:35:17.682Z,50.2
2023-01-13T07:36:18.777Z,50.1
2023-01-13T07:37:19.964Z,49.9
2023-01-13T07:38:20.764Z,49.7
2023-01-13T07:39:21.641Z,50
2023-01-13T07:40:22.623Z,50.1
2023-01-13T07:41:23.594Z,50.2
2023-01-13T07:42:24.606Z,50.2
2023-01-13T07:43:25.644Z,50.2
2023-01-13T07:44:26.615Z,50.1
2023-01-13T07:45:27.745Z,50.6
2023-01-13T07:46:28.687Z,51
2023-01-13T07:47:29.771Z,51.1
2023-01-13T07:48:30.737Z,50.9
2023-01-13T07:49:31.742Z,50.8
2023-01-13T07:50:32.700Z,50.6
2023-01-13T07:51:33.691Z,50.6
2023-01-13T07:52:34.581Z,50.4
2023-01-13T07:53:35.735Z,50.3
2023-01-13T07:54:40.810Z,50.2
2023-01-13T07:55:37.605Z,50.2
2023-01-13T07:56:38.665Z,50.2
2023-01-13T07:57:39.655Z,50.3
2023-01-13T07:58:40.710Z,50.2
2023-01-13T07:59:42.295Z,49.9
2023-01-13T08:00:44.401Z,50
2023-01-13T08:01:45.862Z,50.2
2023-01-13T08:02:46.901Z,50.2
2023-01-13T08:03:47.700Z,50.2
2023-01-13T08:04:48.690Z,50.2
2023-01-13T08:05:49.846Z,50
2023-01-13T08:06:50.787Z,49.9
2023-01-13T08:07:51.618Z,49.9
2023-01-13T08:08:52.636Z,49.7
2023-01-13T08:09:53.674Z,49.8
2023-01-13T08:10:54.665Z,50
2023-01-13T08:11:55.638Z,49.9
2023-01-13T08:12:56.695Z,49.7
2023-01-13T08:13:57.638Z,49.9
2023-01-13T08:14:58.649Z,50
2023-01-13T08:15:59.632Z,50.2
2023-01-13T08:17:00.634Z,50.3
2023-01-13T08:18:01.738Z,50.2
2023-01-13T08:19:02.797Z,50.2
2023-01-13T08:20:03.666Z,50.3
2023-01-13T08:21:04.699Z,50.3
2023-01-13T08:22:05.977Z,50.3
2023-01-13T08:23:07.424Z,50
2023-01-13T08:24:07.680Z,49.9
2023-01-13T08:25:08.691Z,49.9
2023-01-13T08:26:09.710Z,49.9
2023-01-13T08:27:10.672Z,49.9
2023-01-13T08:28:11.704Z,50
2023-01-13T08:29:14.829Z,50.2
2023-01-13T08:30:13.759Z,50.3
2023-01-13T08:31:14.870Z,50.2
2023-01-13T08:32:15.813Z,50
2023-01-13T08:33:16.629Z,50.2
2023-01-13T08:34:17.679Z,50.3
2023-01-13T08:35:18.735Z,50.3
2023-01-13T08:36:19.760Z,50.2
2023-01-13T08:37:20.769Z,50.1
2023-01-13T08:38:21.610Z,50.1
2023-01-13T08:39:22.749Z,50
2023-01-13T08:40:23.694Z,49.8
2023-01-13T08:41:24.760Z,49.8
2023-01-13T08:42:25.924Z,49.9
2023-01-13T08:43:26.729Z,50
2023-01-13T08:44:27.704Z,49.9
2023-01-13T08:45:28.737Z,49.8
2023-01-13T08:46:29.812Z,49.6
2023-01-13T08:47:30.732Z,49.6
2023-01-13T08:48:31.885Z,49.5
2023-01-13T08:49:32.899Z,49.2
2023-01-13T08:50:33.861Z,49
2023-01-13T08:51:34.919Z,49
2023-01-13T08:52:36.232Z,49.1
2023-01-13T08:53:37.858Z,49.2
2023-01-13T08:54:38.687Z,49.3
2023-01-13T08:55:39.759Z,49.4
2023-01-13T08:56:40.708Z,49.4
2023-01-13T08:57:41.847Z,49.5
2023-01-13T08:58:42.781Z,49.4
2023-01-13T08:59:43.849Z,49.1
2023-01-13T09:00:44.888Z,49.1
2023-01-13T09:01:46.236Z,49.2
2023-01-13T09:02:46.944Z,49.7
2023-01-13T09:03:47.850Z,49.6
2023-01-13T09:04:48.855Z,49.5
2023-01-13T09:05:49.888Z,49.7
2023-01-13T09:06:50.946Z,50
2023-01-13T09:07:51.759Z,50.2
2023-01-13T09:08:52.761Z,50.7
2023-01-13T09:09:53.702Z,51.3
2023-01-13T09:10:54.701Z,51.4
2023-01-13T09:11:55.723Z,51.4
2023-01-13T09:12:56.761Z,51.1
2023-01-13T09:13:57.742Z,51.5
2023-01-13T09:14:58.679Z,51.9
2023-01-13T09:15:59.848Z,52
2023-01-13T09:17:00.681Z,52.1
2023-01-13T09:18:01.822Z,52.2
2023-01-13T09:19:02.883Z,52.3
2023-01-13T09:20:03.641Z,52.4
2023-01-13T09:21:04.722Z,52.5
2023-01-13T09:22:06.158Z,52.9
2023-01-13T09:23:10.224Z,53.2
2023-01-13T09:24:08.691Z,52.9
2023-01-13T09:25:09.693Z,52.9
2023-01-13T09:26:10.723Z,52.9
2023-01-13T09:27:11.736Z,52.7
2023-01-13T09:28:12.830Z,52.5
2023-01-13T09:29:13.865Z,52.5
2023-01-13T09:30:15.186Z,52
2023-01-13T09:31:16.991Z,51.8
2023-01-13T09:32:17.774Z,51.7
2023-01-13T09:33:19.121Z,51.6
2023-01-13T09:34:19.806Z,51.4
2023-01-13T09:35:20.823Z,51.6
2023-01-13T09:36:21.705Z,51.8
2023-01-13T09:37:22.693Z,52.1
2023-01-13T09:38:23.822Z,51.9
2023-01-13T09:39:24.665Z,51.7
2023-01-13T09:40:25.851Z,51.7
2023-01-13T09:41:26.827Z,51.3
2023-01-13T09:42:27.767Z,50.7
2023-01-13T09:43:29.003Z,50.8
2023-01-13T09:44:29.801Z,50.8
2023-01-13T09:45:30.826Z,50.5
2023-01-13T09:46:31.765Z,50.7
2023-01-13T09:47:32.746Z,50.8
2023-01-13T09:48:33.723Z,50.5
2023-01-13T09:49:34.681Z,50.6
2023-01-13T09:50:35.783Z,50.4
2023-01-13T09:51:36.715Z,50.2
2023-01-13T09:52:37.794Z,50.7
2023-01-13T09:53:38.846Z,50.5
2023-01-13T09:54:39.840Z,50.7
2023-01-13T09:55:40.760Z,51.4
2023-01-13T09:56:41.962Z,51
2023-01-13T09:57:42.704Z,51.2
2023-01-13T09:58:44.058Z,51.9
2023-01-13T09:59:47.924Z,51.7
2023-01-13T10:00:49.290Z,51.2
2023-01-13T10:01:50.913Z,51.7
2023-01-13T10:02:52.621Z,51.9
2023-01-13T10:03:53.869Z,51.8
2023-01-13T10:04:54.921Z,51.5
2023-01-13T10:05:55.847Z,51.3
2023-01-13T10:06:57.472Z,51.4
2023-01-13T10:07:58.885Z,51.5
2023-01-13T10:08:59.773Z,51.5
2023-01-13T10:10:00.765Z,51.6
2023-01-13T10:11:01.748Z,51.1
2023-01-13T10:12:03.167Z,51
2023-01-13T10:13:04.958Z,51
2023-01-13T10:14:06.328Z,51.3
2023-01-13T10:15:07.900Z,51.6
2023-01-13T10:16:08.874Z,51.5
2023-01-13T10:17:09.756Z,51.3
2023-01-13T10:18:10.764Z,51.4
2023-01-13T10:19:11.770Z,51.2
2023-01-13T10:20:12.782Z,51.1
2023-01-13T10:21:13.742Z,51
2023-01-13T10:22:14.820Z,50.8
2023-01-13T10:23:15.941Z,50.5
2023-01-13T10:24:16.810Z,49.9
2023-01-13T10:25:17.855Z,49
2023-01-13T10:26:19.214Z,49.6
2023-01-13T10:27:19.990Z,49.8
2023-01-13T10:28:20.984Z,49.8
2023-01-13T10:29:21.931Z,50
2023-01-13T10:30:22.892Z,49.6
2023-01-13T10:31:23.920Z,49.4
2023-01-13T10:32:24.741Z,49.5
2023-01-13T10:33:27.869Z,49.8
2023-01-13T10:34:26.819Z,49.6
2023-01-13T10:35:27.811Z,50
2023-01-13T10:36:29.960Z,50.1
2023-01-13T10:37:30.862Z,50.2
2023-01-13T10:38:32.673Z,49.9
2023-01-13T10:39:34.040Z,49.9
2023-01-13T10:40:36.373Z,49.6
2023-01-13T10:41:37.849Z,49.7
2023-01-13T10:42:39.062Z,49.8
2023-01-13T10:43:39.791Z,49.4
2023-01-13T10:44:40.730Z,49.9
2023-01-13T10:45:41.796Z,50.2
2023-01-13T10:46:42.843Z,50
2023-01-13T10:47:44.131Z,50.5
2023-01-13T10:48:45.849Z,49.7
2023-01-13T10:49:46.965Z,49.5
2023-01-13T10:50:47.919Z,49.2
2023-01-13T10:51:48.940Z,49.1
2023-01-13T10:52:50.165Z,49.2
2023-01-13T10:53:51.829Z,48.4
2023-01-13T10:54:52.850Z,48.1
2023-01-13T10:55:54.910Z,48
2023-01-13T10:56:55.970Z,47.8
2023-01-13T10:57:56.971Z,47.6
2023-01-13T10:58:59.514Z,47.2
2023-01-13T11:00:00.941Z,47.2
2023-01-13T11:01:04.099Z,47.3
2023-01-13T11:02:23.721Z,47.5
2023-01-13T11:03:08.751Z,47.8
2023-01-13T11:04:10.319Z,47.7
2023-01-13T11:05:13.472Z,47.9
2023-01-13T11:06:15.819Z,48
2023-01-13T11:07:16.811Z,47.6
2023-01-13T11:08:19.132Z,47.2
2023-01-13T11:09:20.788Z,47.1
2023-01-13T11:10:23.288Z,47
2023-01-13T11:11:26.777Z,46.9
2023-01-13T11:12:27.951Z,47.2
2023-01-13T11:13:28.801Z,47.1
2023-01-13T11:14:30.185Z,47.2
2023-01-13T11:15:31.819Z,47.4
2023-01-13T11:16:33.021Z,47.2
2023-01-13T11:17:33.678Z,47.6
2023-01-13T11:18:35.000Z,47.7
2023-01-13T11:19:37.980Z,47.5
2023-01-13T11:20:36.909Z,47.3
2023-01-13T11:21:37.827Z,47.4
2023-01-13T11:22:38.762Z,47
2023-01-13T11:23:39.802Z,47
2023-01-13T11:24:41.106Z,47.1
2023-01-13T11:25:42.588Z,46.9
2023-01-13T11:26:45.247Z,46.8
2023-01-13T11:27:46.902Z,47
2023-01-13T11:28:48.750Z,47
2023-01-13T11:29:49.782Z,47.5
2023-01-13T11:30:51.058Z,47.5
2023-01-13T11:31:51.848Z,47.7
2023-01-13T11:32:52.887Z,47.8
2023-01-13T11:33:53.931Z,47.6
2023-01-13T11:34:55.244Z,47.4
2023-01-13T11:35:57.353Z,47.6
2023-01-13T11:36:58.721Z,47.6
2023-01-13T11:38:00.248Z,47.7
2023-01-13T11:39:01.931Z,47.9
2023-01-13T11:40:02.844Z,48.2
2023-01-13T11:41:03.965Z,48.6
2023-01-13T11:42:04.783Z,48.5
2023-01-13T11:43:06.022Z,48.6
2023-01-13T11:44:06.918Z,48.7
2023-01-13T11:45:07.942Z,48.7
2023-01-13T11:46:08.868Z,48.7
2023-01-13T11:47:09.752Z,49
2023-01-13T11:48:10.821Z,49.3
2023-01-13T11:49:11.786Z,49.4
2023-01-13T11:50:12.806Z,49.4
2023-01-13T11:51:14.062Z,49.6
2023-01-13T11:52:14.863Z,49.6
2023-01-13T11:53:15.927Z,49.3
2023-01-13T11:54:16.880Z,49.3
2023-01-13T11:55:18.102Z,49.2
2023-01-13T11:56:19.079Z,48.8
2023-01-13T11:57:20.084Z,49.1
2023-01-13T11:58:20.903Z,49.1
2023-01-13T11:59:22.197Z,49
2023-01-13T12:00:22.756Z,48.9
2023-01-13T12:01:24.477Z,49
2023-01-13T12:02:27.222Z,49
2023-01-13T12:03:28.835Z,49
2023-01-13T12:04:30.425Z,48.6
2023-01-13T12:05:31.898Z,48.6
2023-01-13T12:06:32.959Z,48.7
2023-01-13T12:07:33.907Z,48.6
2023-01-13T12:08:34.811Z,48.6
2023-01-13T12:09:35.698Z,48.3
2023-01-13T12:10:38.372Z,48.2
2023-01-13T12:11:39.791Z,48.2
2023-01-13T12:12:41.116Z,48
2023-01-13T12:13:41.768Z,47.9
2023-01-13T12:14:42.942Z,47.9
2023-01-13T12:15:43.820Z,47.8
2023-01-13T12:16:44.765Z,48
2023-01-13T12:17:45.881Z,47.8
2023-01-13T12:18:47.123Z,47.9
2023-01-13T12:19:47.761Z,47.9
2023-01-13T12:20:49.515Z,47.7
2023-01-13T12:21:51.108Z,47.7
2023-01-13T12:22:51.780Z,47.9
2023-01-13T12:23:52.770Z,47.9
2023-01-13T12:24:54.067Z,47.6
2023-01-13T12:25:54.723Z,46.9
2023-01-13T12:26:55.989Z,47.6
2023-01-13T12:27:57.220Z,47.7
2023-01-13T12:28:59.395Z,47.6
2023-01-13T12:30:00.815Z,47.8
2023-01-13T12:31:02.813Z,47.7
2023-01-13T12:32:03.861Z,47.7
2023-01-13T12:33:04.869Z,47.7
2023-01-13T12:34:05.871Z,47.8
2023-01-13T12:35:06.798Z,47.6
2023-01-13T12:36:07.839Z,47.5
2023-01-13T12:37:08.848Z,47.1
2023-01-13T12:38:09.821Z,46.9
2023-01-13T12:39:11.091Z,46.9
2023-01-13T12:40:12.028Z,46.9
2023-01-13T12:41:12.967Z,46.8
2023-01-13T12:42:13.895Z,46.9
2023-01-13T12:43:14.926Z,46.8
2023-01-13T12:44:16.216Z,46.6
2023-01-13T12:45:18.635Z,45.9
2023-01-13T12:46:18.807Z,45.5
2023-01-13T12:47:19.773Z,45.2
2023-01-13T12:48:20.740Z,45.1
2023-01-13T12:49:21.841Z,44.6
2023-01-13T12:50:23.621Z,44.7
2023-01-13T12:51:24.795Z,44.8
2023-01-13T12:52:25.942Z,44.6
2023-01-13T12:53:26.922Z,43.9
2023-01-13T12:54:27.982Z,44.3
2023-01-13T12:55:28.987Z,44.5
2023-01-13T12:56:29.943Z,44.1
2023-01-13T12:57:30.943Z,44.4
2023-01-13T12:58:32.851Z,44.7
2023-01-13T12:59:33.803Z,44.9
2023-01-13T13:00:34.831Z,44.7
2023-01-13T13:01:36.224Z,44.6
2023-01-13T13:02:36.985Z,45.1
2023-01-13T13:03:38.301Z,45.2
2023-01-13T13:04:40.324Z,45.5
2023-01-13T13:05:41.981Z,45.6
2023-01-13T13:06:42.822Z,45.9
2023-01-13T13:07:43.840Z,46.1
2023-01-13T13:08:45.061Z,45.7
2023-01-13T13:09:46.495Z,46
2023-01-13T13:10:48.143Z,45.3
2023-01-13T13:11:49.440Z,45.8
2023-01-13T13:12:50.965Z,46.4
2023-01-13T13:13:52.164Z,46.4
2023-01-13T13:14:53.126Z,46.6
2023-01-13T13:15:54.221Z,46.9
2023-01-13T13:16:56.031Z,47
2023-01-13T13:17:57.011Z,47
2023-01-13T13:18:58.506Z,46.9
2023-01-13T13:20:00.025Z,46.4
2023-01-13T13:21:03.723Z,46.1
2023-01-13T13:22:01.904Z,46.5
2023-01-13T13:23:02.792Z,46.7
2023-01-13T13:24:03.768Z,47.1
2023-01-13T13:25:04.881Z,47.2
2023-01-13T13:26:06.036Z,47.4
2023-01-13T13:27:06.960Z,47.3
2023-01-13T13:28:08.385Z,47.4
2023-01-13T13:29:09.932Z,47.4
2023-01-13T13:30:10.862Z,47.4
2023-01-13T13:31:11.931Z,47.5
2023-01-13T13:32:12.841Z,47.3
2023-01-13T13:33:13.862Z,47.2
2023-01-13T13:34:14.825Z,47.1
2023-01-13T13:35:15.791Z,47
2023-01-13T13:36:17.414Z,47
2023-01-13T13:37:18.926Z,47.1
2023-01-13T13:38:19.989Z,47.2
2023-01-13T13:39:20.781Z,47.2
2023-01-13T13:40:21.806Z,47.1
2023-01-13T13:41:22.869Z,47
2023-01-13T13:42:23.951Z,47
2023-01-13T13:43:26.007Z,47.1